sensor_id;sensor_type;location;lat;lon;timestamp;temperature;humidity
5200;DHT22;2619;47.868;11.892;2023-07-20T00:00:45;16.60;99.90
5200;DHT22;2619;47.868;11.892;2023-07-20T00:03:12;16.60;99.90
5200;DHT22;2619;47.868;11.892;2023-07-20T00:05:43;16.60;99.90
5200;DHT22;2619;47.868;11.892;2023-07-20T00:08:08;16.50;99.90
5200;DHT22;2619;47.868;11.892;2023-07-20T00:10:34;16.40;99.90
5200;DHT22;2619;47.868;11.892;2023-07-20T00:12:59;16.30;99.90
5200;DHT22;2619;47.868;11.892;2023-07-20T00:15:25;16.30;99.90
5200;DHT22;2619;47.868;11.892;2023-07-20T00:17:51;16.30;99.90
5200;DHT22;2619;47.868;11.892;2023-07-20T00:25:39;16.30;99.90
5200;DHT22;2619;47.868;11.892;2023-07-20T00:28:04;16.30;99.90
5200;DHT22;2619;47.868;11.892;2023-07-20T00:30:30;16.30;99.90
5200;DHT22;2619;47.868;11.892;2023-07-20T00:32:55;16.30;99.90
5200;DHT22;2619;47.868;11.892;2023-07-20T00:35:21;16.30;99.90
5200;DHT22;2619;47.868;11.892;2023-07-20T00:37:46;16.40;99.90
5200;DHT22;2619;47.868;11.892;2023-07-20T00:40:12;16.40;99.90
5200;DHT22;2619;47.868;11.892;2023-07-20T00:42:37;16.40;99.90
5200;DHT22;2619;47.868;11.892;2023-07-20T00:45:03;16.40;99.90
5200;DHT22;2619;47.868;11.892;2023-07-20T00:47:29;16.30;99.90
5200;DHT22;2619;47.868;11.892;2023-07-20T00:49:55;16.30;99.90
5200;DHT22;2619;47.868;11.892;2023-07-20T00:52:23;16.30;99.90
5200;DHT22;2619;47.868;11.892;2023-07-20T00:54:49;16.30;99.90
5200;DHT22;2619;47.868;11.892;2023-07-20T00:57:15;16.30;99.90
5200;DHT22;2619;47.868;11.892;2023-07-20T00:59:41;16.30;99.90
5200;DHT22;2619;47.868;11.892;2023-07-20T01:02:07;16.30;99.90
5200;DHT22;2619;47.868;11.892;2023-07-20T01:04:33;16.30;99.90
5200;DHT22;2619;47.868;11.892;2023-07-20T01:07:31;16.30;99.90
5200;DHT22;2619;47.868;11.892;2023-07-20T01:10:29;16.30;99.90
5200;DHT22;2619;47.868;11.892;2023-07-20T01:12:57;16.40;99.90
5200;DHT22;2619;47.868;11.892;2023-07-20T01:15:24;16.40;99.90
5200;DHT22;2619;47.868;11.892;2023-07-20T01:17:50;16.40;99.90
5200;DHT22;2619;47.868;11.892;2023-07-20T01:20:20;16.40;99.90
5200;DHT22;2619;47.868;11.892;2023-07-20T01:31:39;16.60;99.90
5200;DHT22;2619;47.868;11.892;2023-07-20T01:34:08;16.70;99.90
5200;DHT22;2619;47.868;11.892;2023-07-20T01:36:36;16.70;99.90
5200;DHT22;2619;47.868;11.892;2023-07-20T01:39:03;16.70;99.90
5200;DHT22;2619;47.868;11.892;2023-07-20T01:41:30;16.80;99.90
5200;DHT22;2619;47.868;11.892;2023-07-20T01:43:58;16.80;99.90
5200;DHT22;2619;47.868;11.892;2023-07-20T01:46:27;16.90;99.90
5200;DHT22;2619;47.868;11.892;2023-07-20T01:48:53;16.90;99.90
5200;DHT22;2619;47.868;11.892;2023-07-20T01:51:19;16.90;99.90
5200;DHT22;2619;47.868;11.892;2023-07-20T01:53:45;16.90;99.90
5200;DHT22;2619;47.868;11.892;2023-07-20T01:56:10;16.90;99.90
5200;DHT22;2619;47.868;11.892;2023-07-20T01:58:37;17.00;99.90
5200;DHT22;2619;47.868;11.892;2023-07-20T02:01:03;17.00;99.90
5200;DHT22;2619;47.868;11.892;2023-07-20T02:03:29;17.00;99.90
5200;DHT22;2619;47.868;11.892;2023-07-20T02:05:54;17.00;99.90
5200;DHT22;2619;47.868;11.892;2023-07-20T02:08:20;17.00;99.90
5200;DHT22;2619;47.868;11.892;2023-07-20T02:10:49;16.90;99.90
5200;DHT22;2619;47.868;11.892;2023-07-20T02:13:15;17.00;99.90
5200;DHT22;2619;47.868;11.892;2023-07-20T02:15:41;17.00;99.90
5200;DHT22;2619;47.868;11.892;2023-07-20T02:18:08;17.00;99.90
5200;DHT22;2619;47.868;11.892;2023-07-20T02:20:34;17.00;99.90
5200;DHT22;2619;47.868;11.892;2023-07-20T02:22:59;17.00;99.90
5200;DHT22;2619;47.868;11.892;2023-07-20T02:25:25;17.00;99.90
5200;DHT22;2619;47.868;11.892;2023-07-20T02:27:50;17.00;99.90
5200;DHT22;2619;47.868;11.892;2023-07-20T02:30:16;17.00;99.90
5200;DHT22;2619;47.868;11.892;2023-07-20T02:32:42;17.00;99.90
5200;DHT22;2619;47.868;11.892;2023-07-20T02:35:11;17.00;99.90
5200;DHT22;2619;47.868;11.892;2023-07-20T02:37:37;17.00;99.90
5200;DHT22;2619;47.868;11.892;2023-07-20T02:40:03;17.00;99.90
5200;DHT22;2619;47.868;11.892;2023-07-20T02:42:30;16.90;99.90
5200;DHT22;2619;47.868;11.892;2023-07-20T02:44:55;16.90;99.90
5200;DHT22;2619;47.868;11.892;2023-07-20T02:47:21;16.90;99.90
5200;DHT22;2619;47.868;11.892;2023-07-20T02:49:46;16.90;99.90
5200;DHT22;2619;47.868;11.892;2023-07-20T02:52:12;16.90;99.90
5200;DHT22;2619;47.868;11.892;2023-07-20T02:54:38;16.90;99.90
5200;DHT22;2619;47.868;11.892;2023-07-20T02:57:03;16.90;99.90
5200;DHT22;2619;47.868;11.892;2023-07-20T02:59:29;17.00;99.90
5200;DHT22;2619;47.868;11.892;2023-07-20T03:01:55;16.90;99.90
5200;DHT22;2619;47.868;11.892;2023-07-20T03:04:21;16.90;99.90
5200;DHT22;2619;47.868;11.892;2023-07-20T03:06:47;16.90;99.90
5200;DHT22;2619;47.868;11.892;2023-07-20T03:09:12;16.90;99.90
5200;DHT22;2619;47.868;11.892;2023-07-20T03:11:38;16.80;99.90
5200;DHT22;2619;47.868;11.892;2023-07-20T03:14:03;16.80;99.90
5200;DHT22;2619;47.868;11.892;2023-07-20T03:16:29;16.80;99.90
5200;DHT22;2619;47.868;11.892;2023-07-20T03:18:58;16.80;99.90
5200;DHT22;2619;47.868;11.892;2023-07-20T03:21:24;16.90;99.90
5200;DHT22;2619;47.868;11.892;2023-07-20T03:23:50;16.90;99.90
5200;DHT22;2619;47.868;11.892;2023-07-20T03:26:15;16.90;99.90
5200;DHT22;2619;47.868;11.892;2023-07-20T03:28:41;16.90;99.90
5200;DHT22;2619;47.868;11.892;2023-07-20T03:31:06;16.90;99.90
5200;DHT22;2619;47.868;11.892;2023-07-20T03:33:33;16.90;99.90
5200;DHT22;2619;47.868;11.892;2023-07-20T03:35:59;16.90;99.90
5200;DHT22;2619;47.868;11.892;2023-07-20T03:38:26;16.90;99.90
5200;DHT22;2619;47.868;11.892;2023-07-20T03:40:58;17.00;99.90
5200;DHT22;2619;47.868;11.892;2023-07-20T03:43:26;17.00;99.90
5200;DHT22;2619;47.868;11.892;2023-07-20T03:45:52;17.00;99.90
5200;DHT22;2619;47.868;11.892;2023-07-20T03:48:23;17.00;99.90
5200;DHT22;2619;47.868;11.892;2023-07-20T03:50:50;17.00;99.90
5200;DHT22;2619;47.868;11.892;2023-07-20T03:53:17;17.00;99.90
5200;DHT22;2619;47.868;11.892;2023-07-20T03:55:46;16.90;99.90
5200;DHT22;2619;47.868;11.892;2023-07-20T03:58:13;16.90;99.90
5200;DHT22;2619;47.868;11.892;2023-07-20T04:00:39;16.80;99.90
5200;DHT22;2619;47.868;11.892;2023-07-20T04:03:05;16.80;99.90
5200;DHT22;2619;47.868;11.892;2023-07-20T04:05:31;16.80;99.90
5200;DHT22;2619;47.868;11.892;2023-07-20T04:07:56;16.80;99.90
5200;DHT22;2619;47.868;11.892;2023-07-20T04:10:22;16.80;99.90
5200;DHT22;2619;47.868;11.892;2023-07-20T04:12:47;16.80;99.90
5200;DHT22;2619;47.868;11.892;2023-07-20T04:15:14;16.80;99.90
5200;DHT22;2619;47.868;11.892;2023-07-20T04:17:40;16.70;99.90
5200;DHT22;2619;47.868;11.892;2023-07-20T04:20:08;16.70;99.90
5200;DHT22;2619;47.868;11.892;2023-07-20T04:22:34;16.70;99.90
5200;DHT22;2619;47.868;11.892;2023-07-20T04:25:00;16.70;99.90
5200;DHT22;2619;47.868;11.892;2023-07-20T04:27:26;16.60;99.90
5200;DHT22;2619;47.868;11.892;2023-07-20T04:29:52;16.60;99.90
5200;DHT22;2619;47.868;11.892;2023-07-20T04:32:17;16.40;99.90
5200;DHT22;2619;47.868;11.892;2023-07-20T04:34:43;16.40;99.90
5200;DHT22;2619;47.868;11.892;2023-07-20T04:37:09;16.30;99.90
5200;DHT22;2619;47.868;11.892;2023-07-20T04:39:34;16.20;99.90
5200;DHT22;2619;47.868;11.892;2023-07-20T04:42:00;16.20;99.90
5200;DHT22;2619;47.868;11.892;2023-07-20T04:44:25;16.20;99.90
5200;DHT22;2619;47.868;11.892;2023-07-20T04:46:51;16.10;99.90
5200;DHT22;2619;47.868;11.892;2023-07-20T04:49:17;16.10;99.90
5200;DHT22;2619;47.868;11.892;2023-07-20T04:51:42;16.00;99.90
5200;DHT22;2619;47.868;11.892;2023-07-20T04:54:08;15.90;99.90
5200;DHT22;2619;47.868;11.892;2023-07-20T04:56:33;15.90;99.90
5200;DHT22;2619;47.868;11.892;2023-07-20T04:58:59;15.90;99.90
5200;DHT22;2619;47.868;11.892;2023-07-20T05:01:24;15.90;99.90
5200;DHT22;2619;47.868;11.892;2023-07-20T05:03:52;15.80;99.90
5200;DHT22;2619;47.868;11.892;2023-07-20T05:06:18;15.80;99.90
5200;DHT22;2619;47.868;11.892;2023-07-20T05:08:43;15.70;99.90
5200;DHT22;2619;47.868;11.892;2023-07-20T05:11:10;15.60;99.90
5200;DHT22;2619;47.868;11.892;2023-07-20T05:13:36;15.60;99.90
5200;DHT22;2619;47.868;11.892;2023-07-20T05:16:02;15.60;99.90
5200;DHT22;2619;47.868;11.892;2023-07-20T05:18:27;15.50;99.90
5200;DHT22;2619;47.868;11.892;2023-07-20T05:20:53;15.50;99.90
5200;DHT22;2619;47.868;11.892;2023-07-20T05:23:20;15.50;99.90
5200;DHT22;2619;47.868;11.892;2023-07-20T05:25:48;15.40;99.90
5200;DHT22;2619;47.868;11.892;2023-07-20T05:28:18;15.40;99.90
5200;DHT22;2619;47.868;11.892;2023-07-20T05:30:44;15.40;99.90
5200;DHT22;2619;47.868;11.892;2023-07-20T05:33:09;15.50;99.90
5200;DHT22;2619;47.868;11.892;2023-07-20T05:35:36;15.50;99.90
5200;DHT22;2619;47.868;11.892;2023-07-20T05:38:02;15.60;99.90
5200;DHT22;2619;47.868;11.892;2023-07-20T05:40:29;15.60;99.90
5200;DHT22;2619;47.868;11.892;2023-07-20T05:42:55;15.60;99.90
5200;DHT22;2619;47.868;11.892;2023-07-20T05:45:22;15.70;99.90
5200;DHT22;2619;47.868;11.892;2023-07-20T05:47:48;15.70;99.90
5200;DHT22;2619;47.868;11.892;2023-07-20T05:50:14;15.50;99.90
5200;DHT22;2619;47.868;11.892;2023-07-20T05:52:40;15.50;99.90
5200;DHT22;2619;47.868;11.892;2023-07-20T05:55:06;15.40;99.90
5200;DHT22;2619;47.868;11.892;2023-07-20T05:57:32;15.40;99.90
5200;DHT22;2619;47.868;11.892;2023-07-20T05:59:58;15.30;99.90
5200;DHT22;2619;47.868;11.892;2023-07-20T06:02:23;15.30;99.90
5200;DHT22;2619;47.868;11.892;2023-07-20T06:04:49;15.30;99.90
5200;DHT22;2619;47.868;11.892;2023-07-20T06:07:15;15.30;99.90
5200;DHT22;2619;47.868;11.892;2023-07-20T06:09:40;15.40;99.90
5200;DHT22;2619;47.868;11.892;2023-07-20T06:12:07;15.50;99.90
5200;DHT22;2619;47.868;11.892;2023-07-20T06:14:32;15.50;99.90
5200;DHT22;2619;47.868;11.892;2023-07-20T06:16:58;15.50;99.90
5200;DHT22;2619;47.868;11.892;2023-07-20T06:19:24;15.50;99.90
5200;DHT22;2619;47.868;11.892;2023-07-20T06:21:50;15.50;99.90
5200;DHT22;2619;47.868;11.892;2023-07-20T06:24:17;15.50;99.90
5200;DHT22;2619;47.868;11.892;2023-07-20T06:26:42;15.50;99.90
5200;DHT22;2619;47.868;11.892;2023-07-20T06:29:08;15.50;99.90
5200;DHT22;2619;47.868;11.892;2023-07-20T06:31:36;15.60;99.90
5200;DHT22;2619;47.868;11.892;2023-07-20T06:34:02;15.70;99.90
5200;DHT22;2619;47.868;11.892;2023-07-20T06:36:28;15.70;99.90
5200;DHT22;2619;47.868;11.892;2023-07-20T06:38:54;15.90;99.90
5200;DHT22;2619;47.868;11.892;2023-07-20T06:41:19;16.20;99.90
5200;DHT22;2619;47.868;11.892;2023-07-20T06:43:45;16.30;99.90
5200;DHT22;2619;47.868;11.892;2023-07-20T06:46:11;16.40;99.90
5200;DHT22;2619;47.868;11.892;2023-07-20T06:48:36;16.60;99.90
5200;DHT22;2619;47.868;11.892;2023-07-20T06:51:02;16.80;99.90
5200;DHT22;2619;47.868;11.892;2023-07-20T06:53:29;16.90;99.90
5200;DHT22;2619;47.868;11.892;2023-07-20T06:55:54;17.10;99.90
5200;DHT22;2619;47.868;11.892;2023-07-20T06:58:25;17.30;99.90
5200;DHT22;2619;47.868;11.892;2023-07-20T07:00:51;17.50;99.90
5200;DHT22;2619;47.868;11.892;2023-07-20T07:03:17;17.50;99.90
5200;DHT22;2619;47.868;11.892;2023-07-20T07:05:43;17.60;99.90
5200;DHT22;2619;47.868;11.892;2023-07-20T07:08:09;17.60;99.90
5200;DHT22;2619;47.868;11.892;2023-07-20T07:10:35;17.70;99.90
5200;DHT22;2619;47.868;11.892;2023-07-20T07:13:01;17.70;99.90
5200;DHT22;2619;47.868;11.892;2023-07-20T07:15:27;18.00;99.90
5200;DHT22;2619;47.868;11.892;2023-07-20T07:17:53;18.20;99.90
5200;DHT22;2619;47.868;11.892;2023-07-20T07:20:18;18.40;99.90
5200;DHT22;2619;47.868;11.892;2023-07-20T07:22:44;18.40;99.90
5200;DHT22;2619;47.868;11.892;2023-07-20T07:25:11;18.60;99.90
5200;DHT22;2619;47.868;11.892;2023-07-20T07:27:36;18.60;99.90
5200;DHT22;2619;47.868;11.892;2023-07-20T07:30:03;18.70;99.90
5200;DHT22;2619;47.868;11.892;2023-07-20T07:32:28;18.90;99.90
5200;DHT22;2619;47.868;11.892;2023-07-20T07:34:54;19.10;99.90
5200;DHT22;2619;47.868;11.892;2023-07-20T07:37:20;19.20;99.90
5200;DHT22;2619;47.868;11.892;2023-07-20T07:39:46;19.10;99.90
5200;DHT22;2619;47.868;11.892;2023-07-20T07:42:12;19.00;99.90
5200;DHT22;2619;47.868;11.892;2023-07-20T07:44:38;19.00;99.90
5200;DHT22;2619;47.868;11.892;2023-07-20T07:47:04;19.00;99.90
5200;DHT22;2619;47.868;11.892;2023-07-20T07:49:29;19.20;99.90
5200;DHT22;2619;47.868;11.892;2023-07-20T07:51:56;19.40;99.90
5200;DHT22;2619;47.868;11.892;2023-07-20T07:54:22;19.70;99.90
5200;DHT22;2619;47.868;11.892;2023-07-20T07:56:47;19.90;99.90
5200;DHT22;2619;47.868;11.892;2023-07-20T07:59:13;20.20;99.90
5200;DHT22;2619;47.868;11.892;2023-07-20T08:01:39;20.50;99.90
5200;DHT22;2619;47.868;11.892;2023-07-20T08:04:04;20.60;99.90
5200;DHT22;2619;47.868;11.892;2023-07-20T08:06:30;21.00;99.90
5200;DHT22;2619;47.868;11.892;2023-07-20T08:08:56;21.40;99.90
5200;DHT22;2619;47.868;11.892;2023-07-20T08:11:23;21.60;99.90
5200;DHT22;2619;47.868;11.892;2023-07-20T08:13:49;21.70;99.90
5200;DHT22;2619;47.868;11.892;2023-07-20T08:16:14;21.90;99.90
5200;DHT22;2619;47.868;11.892;2023-07-20T08:18:40;21.90;99.90
5200;DHT22;2619;47.868;11.892;2023-07-20T08:21:05;21.80;99.90
5200;DHT22;2619;47.868;11.892;2023-07-20T08:23:31;21.90;99.90
5200;DHT22;2619;47.868;11.892;2023-07-20T08:25:56;21.90;99.90
5200;DHT22;2619;47.868;11.892;2023-07-20T08:28:22;22.00;99.90
5200;DHT22;2619;47.868;11.892;2023-07-20T08:30:48;22.50;99.90
5200;DHT22;2619;47.868;11.892;2023-07-20T08:33:17;22.60;99.90
5200;DHT22;2619;47.868;11.892;2023-07-20T08:35:45;22.80;99.90
5200;DHT22;2619;47.868;11.892;2023-07-20T08:38:10;22.80;99.90
5200;DHT22;2619;47.868;11.892;2023-07-20T08:40:40;23.00;99.90
5200;DHT22;2619;47.868;11.892;2023-07-20T08:43:06;23.10;99.90
5200;DHT22;2619;47.868;11.892;2023-07-20T08:45:36;23.30;99.90
5200;DHT22;2619;47.868;11.892;2023-07-20T08:48:05;23.50;99.90
5200;DHT22;2619;47.868;11.892;2023-07-20T08:50:31;23.50;99.90
5200;DHT22;2619;47.868;11.892;2023-07-20T08:52:58;23.60;99.90
5200;DHT22;2619;47.868;11.892;2023-07-20T08:55:26;23.80;99.90
5200;DHT22;2619;47.868;11.892;2023-07-20T08:57:54;23.70;99.90
5200;DHT22;2619;47.868;11.892;2023-07-20T09:00:20;23.50;99.90
5200;DHT22;2619;47.868;11.892;2023-07-20T09:02:52;23.20;99.90
5200;DHT22;2619;47.868;11.892;2023-07-20T09:05:22;23.20;99.90
5200;DHT22;2619;47.868;11.892;2023-07-20T09:07:48;23.20;99.90
5200;DHT22;2619;47.868;11.892;2023-07-20T09:10:14;23.40;99.90
5200;DHT22;2619;47.868;11.892;2023-07-20T09:12:41;23.70;99.90
5200;DHT22;2619;47.868;11.892;2023-07-20T09:15:08;23.70;99.90
5200;DHT22;2619;47.868;11.892;2023-07-20T09:17:34;23.70;99.90
5200;DHT22;2619;47.868;11.892;2023-07-20T09:20:07;23.90;99.90
5200;DHT22;2619;47.868;11.892;2023-07-20T09:22:37;24.20;99.90
5200;DHT22;2619;47.868;11.892;2023-07-20T09:25:15;24.20;99.90
5200;DHT22;2619;47.868;11.892;2023-07-20T09:27:43;24.00;99.90
5200;DHT22;2619;47.868;11.892;2023-07-20T09:30:09;24.00;99.90
5200;DHT22;2619;47.868;11.892;2023-07-20T09:32:42;24.10;99.90
5200;DHT22;2619;47.868;11.892;2023-07-20T09:35:20;24.00;99.90
5200;DHT22;2619;47.868;11.892;2023-07-20T09:37:58;24.00;99.90
5200;DHT22;2619;47.868;11.892;2023-07-20T09:40:25;23.70;99.90
5200;DHT22;2619;47.868;11.892;2023-07-20T09:42:52;23.60;99.90
5200;DHT22;2619;47.868;11.892;2023-07-20T09:45:18;23.60;99.90
5200;DHT22;2619;47.868;11.892;2023-07-20T09:47:44;23.60;99.90
5200;DHT22;2619;47.868;11.892;2023-07-20T09:50:10;23.80;99.90
5200;DHT22;2619;47.868;11.892;2023-07-20T09:52:41;24.00;99.90
5200;DHT22;2619;47.868;11.892;2023-07-20T09:55:08;23.90;99.90
5200;DHT22;2619;47.868;11.892;2023-07-20T09:57:35;23.80;99.90
5200;DHT22;2619;47.868;11.892;2023-07-20T10:00:05;23.80;99.90
5200;DHT22;2619;47.868;11.892;2023-07-20T10:02:42;23.90;99.90
5200;DHT22;2619;47.868;11.892;2023-07-20T10:05:14;24.10;99.90
5200;DHT22;2619;47.868;11.892;2023-07-20T10:07:44;24.10;99.90
5200;DHT22;2619;47.868;11.892;2023-07-20T10:10:14;24.20;99.90
5200;DHT22;2619;47.868;11.892;2023-07-20T10:12:41;24.50;99.90
5200;DHT22;2619;47.868;11.892;2023-07-20T10:15:28;24.80;99.90
5200;DHT22;2619;47.868;11.892;2023-07-20T10:20:47;25.00;99.90
5200;DHT22;2619;47.868;11.892;2023-07-20T10:23:14;24.90;99.90
5200;DHT22;2619;47.868;11.892;2023-07-20T10:25:40;24.80;99.90
5200;DHT22;2619;47.868;11.892;2023-07-20T10:28:08;24.80;99.90
5200;DHT22;2619;47.868;11.892;2023-07-20T10:30:35;24.70;99.90
5200;DHT22;2619;47.868;11.892;2023-07-20T10:33:04;24.90;99.90
5200;DHT22;2619;47.868;11.892;2023-07-20T10:35:31;24.90;99.90
5200;DHT22;2619;47.868;11.892;2023-07-20T10:38:15;25.00;99.90
5200;DHT22;2619;47.868;11.892;2023-07-20T10:40:41;25.00;99.90
5200;DHT22;2619;47.868;11.892;2023-07-20T10:43:08;25.20;99.90
5200;DHT22;2619;47.868;11.892;2023-07-20T10:45:41;25.10;99.90
5200;DHT22;2619;47.868;11.892;2023-07-20T10:48:18;25.10;99.90
5200;DHT22;2619;47.868;11.892;2023-07-20T10:50:44;25.20;99.90
5200;DHT22;2619;47.868;11.892;2023-07-20T10:55:38;25.20;99.90
5200;DHT22;2619;47.868;11.892;2023-07-20T10:58:22;25.30;99.90
5200;DHT22;2619;47.868;11.892;2023-07-20T11:01:01;25.30;99.90
5200;DHT22;2619;47.868;11.892;2023-07-20T11:03:34;25.40;99.90
5200;DHT22;2619;47.868;11.892;2023-07-20T11:08:49;25.50;99.90
5200;DHT22;2619;47.868;11.892;2023-07-20T11:11:24;25.60;99.90
5200;DHT22;2619;47.868;11.892;2023-07-20T11:14:04;26.00;99.90
5200;DHT22;2619;47.868;11.892;2023-07-20T11:16:47;26.40;99.90
5200;DHT22;2619;47.868;11.892;2023-07-20T11:19:19;26.60;99.90
5200;DHT22;2619;47.868;11.892;2023-07-20T11:21:47;26.50;99.90
5200;DHT22;2619;47.868;11.892;2023-07-20T11:24:14;26.40;99.90
5200;DHT22;2619;47.868;11.892;2023-07-20T11:26:44;26.20;99.90
5200;DHT22;2619;47.868;11.892;2023-07-20T11:29:10;26.00;99.90
5200;DHT22;2619;47.868;11.892;2023-07-20T11:31:41;26.10;99.90
5200;DHT22;2619;47.868;11.892;2023-07-20T11:34:10;26.20;99.90
5200;DHT22;2619;47.868;11.892;2023-07-20T11:36:36;26.10;99.90
5200;DHT22;2619;47.868;11.892;2023-07-20T11:39:02;26.20;99.90
5200;DHT22;2619;47.868;11.892;2023-07-20T11:41:30;26.30;99.90
5200;DHT22;2619;47.868;11.892;2023-07-20T11:43:57;26.30;99.90
5200;DHT22;2619;47.868;11.892;2023-07-20T11:46:22;26.30;99.90
5200;DHT22;2619;47.868;11.892;2023-07-20T11:48:48;26.20;99.90
5200;DHT22;2619;47.868;11.892;2023-07-20T11:51:17;26.00;99.90
5200;DHT22;2619;47.868;11.892;2023-07-20T11:53:44;26.10;99.70
5200;DHT22;2619;47.868;11.892;2023-07-20T11:56:11;26.00;99.90
5200;DHT22;2619;47.868;11.892;2023-07-20T11:58:42;26.00;99.90
5200;DHT22;2619;47.868;11.892;2023-07-20T12:01:08;26.60;99.90
5200;DHT22;2619;47.868;11.892;2023-07-20T12:03:34;27.00;99.90
5200;DHT22;2619;47.868;11.892;2023-07-20T12:06:10;27.50;99.90
5200;DHT22;2619;47.868;11.892;2023-07-20T12:08:39;28.10;99.90
5200;DHT22;2619;47.868;11.892;2023-07-20T12:11:05;28.20;97.80
5200;DHT22;2619;47.868;11.892;2023-07-20T12:13:51;27.90;97.10
5200;DHT22;2619;47.868;11.892;2023-07-20T12:16:16;27.90;99.40
5200;DHT22;2619;47.868;11.892;2023-07-20T12:18:45;27.90;99.20
5200;DHT22;2619;47.868;11.892;2023-07-20T12:21:11;28.20;97.50
5200;DHT22;2619;47.868;11.892;2023-07-20T12:23:40;28.10;98.30
5200;DHT22;2619;47.868;11.892;2023-07-20T12:26:10;28.50;97.50
5200;DHT22;2619;47.868;11.892;2023-07-20T12:28:39;28.70;99.40
5200;DHT22;2619;47.868;11.892;2023-07-20T12:31:07;28.70;95.90
5200;DHT22;2619;47.868;11.892;2023-07-20T12:33:33;28.40;97.40
5200;DHT22;2619;47.868;11.892;2023-07-20T12:35:59;28.10;97.40
5200;DHT22;2619;47.868;11.892;2023-07-20T12:38:25;28.10;98.60
5200;DHT22;2619;47.868;11.892;2023-07-20T12:40:53;27.90;98.60
5200;DHT22;2619;47.868;11.892;2023-07-20T12:43:20;27.60;99.40
5200;DHT22;2619;47.868;11.892;2023-07-20T12:45:46;27.70;98.20
5200;DHT22;2619;47.868;11.892;2023-07-20T12:48:12;27.90;98.90
5200;DHT22;2619;47.868;11.892;2023-07-20T12:50:37;28.00;96.90
5200;DHT22;2619;47.868;11.892;2023-07-20T12:53:03;27.90;96.30
5200;DHT22;2619;47.868;11.892;2023-07-20T12:55:29;27.90;96.40
5200;DHT22;2619;47.868;11.892;2023-07-20T12:57:55;27.70;98.90
5200;DHT22;2619;47.868;11.892;2023-07-20T13:00:21;27.50;95.40
5200;DHT22;2619;47.868;11.892;2023-07-20T13:02:50;27.20;96.10
5200;DHT22;2619;47.868;11.892;2023-07-20T13:05:15;27.40;96.80
5200;DHT22;2619;47.868;11.892;2023-07-20T13:07:41;27.40;97.10
5200;DHT22;2619;47.868;11.892;2023-07-20T13:10:08;27.80;97.70
5200;DHT22;2619;47.868;11.892;2023-07-20T13:12:35;28.10;99.60
5200;DHT22;2619;47.868;11.892;2023-07-20T13:15:08;28.40;96.50
5200;DHT22;2619;47.868;11.892;2023-07-20T13:17:35;28.80;96.30
5200;DHT22;2619;47.868;11.892;2023-07-20T13:20:01;29.40;93.70
5200;DHT22;2619;47.868;11.892;2023-07-20T13:22:30;29.00;93.40
5200;DHT22;2619;47.868;11.892;2023-07-20T13:24:55;28.70;93.40
5200;DHT22;2619;47.868;11.892;2023-07-20T13:27:21;28.40;93.30
5200;DHT22;2619;47.868;11.892;2023-07-20T13:29:47;28.20;93.30
5200;DHT22;2619;47.868;11.892;2023-07-20T13:32:16;28.00;94.50
5200;DHT22;2619;47.868;11.892;2023-07-20T13:34:43;27.70;95.20
5200;DHT22;2619;47.868;11.892;2023-07-20T13:37:10;27.70;95.70
5200;DHT22;2619;47.868;11.892;2023-07-20T13:39:36;27.80;94.70
5200;DHT22;2619;47.868;11.892;2023-07-20T13:42:02;27.90;95.80
5200;DHT22;2619;47.868;11.892;2023-07-20T13:44:32;28.00;94.10
5200;DHT22;2619;47.868;11.892;2023-07-20T13:46:58;28.00;96.40
5200;DHT22;2619;47.868;11.892;2023-07-20T13:49:24;28.00;96.10
5200;DHT22;2619;47.868;11.892;2023-07-20T13:51:50;27.70;92.70
5200;DHT22;2619;47.868;11.892;2023-07-20T13:54:15;27.90;95.00
5200;DHT22;2619;47.868;11.892;2023-07-20T13:56:41;28.30;94.80
5200;DHT22;2619;47.868;11.892;2023-07-20T13:59:06;28.30;93.20
5200;DHT22;2619;47.868;11.892;2023-07-20T14:01:32;28.40;93.90
5200;DHT22;2619;47.868;11.892;2023-07-20T14:04:02;28.50;95.10
5200;DHT22;2619;47.868;11.892;2023-07-20T14:06:29;28.40;92.60
5200;DHT22;2619;47.868;11.892;2023-07-20T14:08:55;28.40;93.70
5200;DHT22;2619;47.868;11.892;2023-07-20T14:11:21;28.40;94.90
5200;DHT22;2619;47.868;11.892;2023-07-20T14:13:46;28.50;91.50
5200;DHT22;2619;47.868;11.892;2023-07-20T14:16:12;28.40;92.00
5200;DHT22;2619;47.868;11.892;2023-07-20T14:18:37;28.20;92.50
5200;DHT22;2619;47.868;11.892;2023-07-20T14:21:03;28.00;91.60
5200;DHT22;2619;47.868;11.892;2023-07-20T14:23:30;27.90;93.50
5200;DHT22;2619;47.868;11.892;2023-07-20T14:25:56;28.00;93.00
5200;DHT22;2619;47.868;11.892;2023-07-20T14:28:21;28.20;91.60
5200;DHT22;2619;47.868;11.892;2023-07-20T14:30:47;28.40;94.00
5200;DHT22;2619;47.868;11.892;2023-07-20T14:33:12;28.70;92.20
5200;DHT22;2619;47.868;11.892;2023-07-20T14:35:38;29.00;92.80
5200;DHT22;2619;47.868;11.892;2023-07-20T14:38:04;29.10;92.30
5200;DHT22;2619;47.868;11.892;2023-07-20T14:40:29;29.20;93.70
5200;DHT22;2619;47.868;11.892;2023-07-20T14:42:55;29.10;92.80
5200;DHT22;2619;47.868;11.892;2023-07-20T14:45:21;29.00;92.80
5200;DHT22;2619;47.868;11.892;2023-07-20T14:47:47;28.50;91.60
5200;DHT22;2619;47.868;11.892;2023-07-20T14:50:19;28.10;92.80
5200;DHT22;2619;47.868;11.892;2023-07-20T14:52:45;28.00;92.20
5200;DHT22;2619;47.868;11.892;2023-07-20T14:55:10;28.00;92.50
5200;DHT22;2619;47.868;11.892;2023-07-20T14:57:36;27.90;92.60
5200;DHT22;2619;47.868;11.892;2023-07-20T15:00:02;27.70;92.00
5200;DHT22;2619;47.868;11.892;2023-07-20T15:02:28;27.60;92.90
5200;DHT22;2619;47.868;11.892;2023-07-20T15:04:54;27.40;92.30
5200;DHT22;2619;47.868;11.892;2023-07-20T15:07:21;27.20;93.00
5200;DHT22;2619;47.868;11.892;2023-07-20T15:09:47;27.20;93.80
5200;DHT22;2619;47.868;11.892;2023-07-20T15:12:13;27.20;93.30
5200;DHT22;2619;47.868;11.892;2023-07-20T15:14:40;27.20;93.00
5200;DHT22;2619;47.868;11.892;2023-07-20T15:17:07;27.10;91.60
5200;DHT22;2619;47.868;11.892;2023-07-20T15:19:32;27.10;92.90
5200;DHT22;2619;47.868;11.892;2023-07-20T15:21:59;27.40;93.50
5200;DHT22;2619;47.868;11.892;2023-07-20T15:24:25;27.40;93.40
5200;DHT22;2619;47.868;11.892;2023-07-20T15:26:50;27.60;93.90
5200;DHT22;2619;47.868;11.892;2023-07-20T15:29:16;27.50;92.70
5200;DHT22;2619;47.868;11.892;2023-07-20T15:31:42;27.30;92.20
5200;DHT22;2619;47.868;11.892;2023-07-20T15:34:07;27.30;91.70
5200;DHT22;2619;47.868;11.892;2023-07-20T15:36:33;27.30;91.50
5200;DHT22;2619;47.868;11.892;2023-07-20T15:38:58;27.20;91.90
5200;DHT22;2619;47.868;11.892;2023-07-20T15:41:24;27.20;92.70
5200;DHT22;2619;47.868;11.892;2023-07-20T15:43:49;27.30;93.60
5200;DHT22;2619;47.868;11.892;2023-07-20T15:49:02;27.10;92.60
5200;DHT22;2619;47.868;11.892;2023-07-20T15:51:27;26.90;93.00
5200;DHT22;2619;47.868;11.892;2023-07-20T15:53:53;26.70;93.20
5200;DHT22;2619;47.868;11.892;2023-07-20T15:56:18;26.60;93.30
5200;DHT22;2619;47.868;11.892;2023-07-20T15:58:44;26.60;92.50
5200;DHT22;2619;47.868;11.892;2023-07-20T16:01:09;26.70;95.70
5200;DHT22;2619;47.868;11.892;2023-07-20T16:03:35;26.60;94.10
5200;DHT22;2619;47.868;11.892;2023-07-20T16:06:01;26.50;95.30
5200;DHT22;2619;47.868;11.892;2023-07-20T16:08:29;26.30;93.40